Latest Weather Observations for Adelaide (West Terrace / ngayirdapira)

IDS60801

Issued at 5:01 am CDT Tuesday 13 November 2018 (issued every 10 minutes, with the page automatically refreshed every 10 minutes)

About weather observations | Map of weather stations | Latest weather observations for SA | Other Formats
Station Details ID: 023000 Name: ADELAIDE (WEST TERRACE / NGAYIRDAPIRA) Lat: -34.93 Lon: 138.58 Height: 29.32 m
Data from the previous 72 hours. | See also: Recent months at Adelaide (West Terrace / ngayirdapira)
Date/Time
CDT
Temp
°C
App
Temp
°C
Dew
Point
°C
Rel
Hum
%
Delta-T
°C
Wind Press
QNH
hPa
Press
MSL
hPa
Rain since
9am
mm
Dir  Spd
km/h
Gust
km/h
Spd
kts
Gust
kts
13/05:00am 20.8 19.4 13.3 62 4.3 S 13 17 7 9 1008.5 1008.4 0.0
13/04:30am 21.9 20.3 12.7 56 5.3 WSW 13 20 7 11 1008.6 1008.5 0.0
13/04:00am 22.9 20.3 10.7 46 6.7 W 15 30 8 16 1007.6 1007.5 0.0
13/03:30am 24.8 20.9 7.0 32 9.3 ENE 17 26 9 14 1006.7 1006.6 0.0
13/03:00am 22.8 21.2 10.3 45 6.9 NNE 9 13 5 7 1007.1 1007.0 0.0
13/02:30am 23.9 22.5 9.5 40 7.9 NE 7 11 4 6 1007.2 1007.1 0.0
13/02:00am 24.2 22.0 7.8 35 8.7 ENE 9 13 5 7 1007.2 1007.1 0.0
13/01:30am 24.5 22.5 8.5 36 8.6 ENE 9 13 5 7 1007.6 1007.5 0.0
13/01:00am 24.5 22.1 8.5 36 8.6 NE 11 15 6 8 1008.2 1008.1 0.0
13/12:30am 24.1 21.7 10.0 41 7.8 NE 13 20 7 11 1008.6 1008.5 0.0
13/12:00am 23.9 22.0 10.6 43 7.4 NE 11 17 6 9 1009.1 1009.0 0.0
 
Date/Time
CDT
Temp
°C
App
Temp
°C
Dew
Point
°C
Rel
Hum
%
Delta-T
°C
Wind Press
QNH
hPa
Press
MSL
hPa
Rain since
9am
mm
Dir  Spd
km/h
Gust
km/h
Spd
kts
Gust
kts
12/11:30pm 24.1 21.6 9.7 40 7.9 NE 13 17 7 9 1009.6 1009.5 0.0
12/11:00pm 25.0 22.7 8.9 36 8.7 NE 11 17 6 9 1010.1 1010.0 0.0
12/10:30pm 25.1 23.3 9.4 37 8.6 E 9 13 5 7 1010.1 1010.0 0.0
12/10:00pm 24.7 23.2 9.0 37 8.5 NNW 7 15 4 8 1010.3 1010.2 0.0
12/09:30pm 24.7 22.4 10.6 41 7.9 E 13 19 7 10 1010.7 1010.6 0.0
12/09:00pm 23.9 23.0 12.5 49 6.5 E 9 13 5 7 1011.1 1011.0 0.0
12/08:30pm 23.1 23.3 13.0 53 5.8 SE 4 9 2 5 1011.6 1011.5 0.0
12/08:00pm 23.3 23.1 13.5 54 5.7 S 7 11 4 6 1011.4 1011.3 0.0
12/07:30pm 23.1 22.6 13.8 55 5.4 S 9 13 5 7 1011.4 1011.3 0.0
12/07:00pm 22.6 21.5 14.2 59 4.9 S 13 20 7 11 1011.6 1011.5 0.0
12/06:30pm 22.5 20.7 14.4 60 4.8 SSW 17 26 9 14 1011.5 1011.4 0.0
12/06:00pm 22.7 20.5 14.3 59 4.9 SW 19 28 10 15 1011.1 1011.0 0.0
12/05:30pm 23.3 20.8 14.0 56 5.5 SW 20 33 11 18 1010.7 1010.6 0.0
12/05:00pm 24.1 20.6 13.3 51 6.3 SSW 24 35 13 19 1010.6 1010.5 0.0
12/04:30pm 25.1 20.8 13.3 48 6.9 SW 28 50 15 27 1010.5 1010.4 0.0
12/04:21pm 25.2 20.5 13.1 47 7.0 WSW 30 50 16 27 1010.3 1010.2 0.0
12/04:15pm 26.3 21.9 10.5 37 8.9 WNW 24 48 13 26 1010.0 1009.9 0.0
12/04:00pm 32.4 26.2 -4.5 9 16.6 WNW 19 26 10 14 1009.4 1009.3 0.0
12/03:30pm 33.1 26.8 -4.0 9 17.0 NW 20 32 11 17 1009.7 1009.6 0.0
12/03:00pm 33.7 27.5 -3.5 9 17.2 WNW 20 30 11 16 1010.0 1009.9 0.0
12/02:30pm 33.0 26.7 -4.0 9 16.9 NW 20 32 11 17 1010.4 1010.3 0.0
12/02:00pm 33.4 26.9 -2.3 10 16.8 NW 22 35 12 19 1010.8 1010.7 0.0
12/01:30pm 32.7 26.4 -4.3 9 16.8 NW 20 35 11 19 1011.2 1011.1 0.0
12/01:00pm 33.3 27.2 -2.4 10 16.8 NW 20 30 11 16 1011.3 1011.2 0.0
12/12:30pm 33.1 26.6 -2.6 10 16.7 NNW 22 35 12 19 1011.7 1011.6 0.0
12/12:00pm 32.0 25.8 -3.4 10 16.2 NNW 20 35 11 19 1012.3 1012.2 0.0
12/11:30am 32.0 25.9 -2.1 11 16.0 NNW 20 33 11 18 1012.5 1012.4 0.0
12/11:00am 31.4 25.3 -3.8 10 15.9 NNW 19 33 10 18 1012.6 1012.5 0.0
12/10:30am 30.5 25.9 -1.0 13 14.9 N 13 20 7 11 1012.6 1012.5 0.0
12/10:00am 29.4 23.9 -1.9 13 14.4 NNE 17 28 9 15 1012.9 1012.8 0.0
12/09:30am 29.0 24.4 -1.2 14 14.0 NNE 13 20 7 11 1013.0 1012.9 0.0
12/09:00am 28.8 24.7 -0.4 15 13.7 NNE 11 22 6 12 1012.9 1012.8 0.0
12/08:30am 27.1 22.9 1.5 19 12.3 NE 13 19 7 10 1012.8 1012.7 0.0
12/08:00am 25.6 21.6 0.3 19 11.8 NE 11 20 6 11 1012.7 1012.6 0.0
12/07:30am 25.3 20.7 -0.7 18 11.9 ENE 13 20 7 11 1012.2 1012.1 0.0
12/07:00am 24.7 20.3 0.3 20 11.3 ENE 13 20 7 11 1012.3 1012.2 0.0
12/06:30am 24.9 19.9 -1.0 18 11.7 ENE 15 22 8 12 1012.1 1012.0 0.0
12/06:00am 24.4 19.9 0.0 20 11.2 NE 13 20 7 11 1012.1 1012.0 0.0
12/05:30am 24.9 19.9 -1.0 18 11.7 NE 15 20 8 11 1011.7 1011.6 0.0
12/05:00am 24.6 20.1 -0.5 19 11.4 NE 13 19 7 10 1011.8 1011.7 0.0
12/04:30am 24.5 20.2 0.8 21 11.0 NE 13 20 7 11 1011.8 1011.7 0.0
12/04:00am 24.5 20.3 1.4 22 10.9 NE 13 20 7 11 1011.8 1011.7 0.0
12/03:30am 24.7 20.3 0.3 20 11.3 NE 13 22 7 12 1011.7 1011.6 0.0
12/03:00am 25.6 21.1 -0.5 18 12.0 ENE 13 24 7 13 1011.8 1011.7 0.0
12/02:30am 24.9 20.8 -0.3 19 11.5 ENE 11 15 6 8 1012.0 1011.9 0.0
12/02:00am 25.1 20.7 0.6 20 11.4 ENE 13 20 7 11 1012.5 1012.4 0.0
12/01:30am 24.3 20.9 1.9 23 10.6 NE 9 15 5 8 1013.0 1012.9 0.0
12/01:00am 24.8 20.7 2.3 23 10.8 ENE 13 26 7 14 1013.4 1013.3 0.0
12/12:30am 24.0 20.8 3.3 26 10.1 E 9 13 5 7 1013.9 1013.8 0.0
12/12:00am 25.3 21.0 3.3 24 10.8 E 15 22 8 12 1014.0 1013.9 0.0
 
Date/Time
CDT
Temp
°C
App
Temp
°C
Dew
Point
°C
Rel
Hum
%
Delta-T
°C
Wind Press
QNH
hPa
Press
MSL
hPa
Rain since
9am
mm
Dir  Spd
km/h
Gust
km/h
Spd
kts
Gust
kts
11/11:30pm 25.6 21.0 3.6 24 10.9 E 17 28 9 15 1014.4 1014.3 0.0
11/11:00pm 25.3 21.7 2.7 23 11.0 E 11 19 6 10 1014.8 1014.7 0.0
11/10:30pm 25.5 21.9 2.9 23 11.0 ESE 11 17 6 9 1015.0 1014.9 0.0
11/10:00pm 25.5 22.1 4.0 25 10.7 E 11 15 6 8 1015.1 1015.0 0.0
11/09:30pm 25.7 22.7 4.2 25 10.7 ESE 9 15 5 8 1014.8 1014.7 0.0
11/09:00pm 24.5 22.4 6.7 32 9.2 ESE 7 11 4 6 1014.7 1014.6 0.0
11/08:30pm 25.2 23.3 6.9 31 9.6 SE 6 11 3 6 1014.6 1014.5 0.0
11/08:00pm 25.7 22.7 1.8 21 11.4 S 7 11 4 6 1014.1 1014.0 0.0
11/07:30pm 27.0 23.2 -3.7 13 13.4 SW 7 13 4 7 1013.8 1013.7 0.0
11/07:00pm 29.2 25.7 -1.0 14 14.1 WSW 7 13 4 7 1013.7 1013.6 0.0
11/06:30pm 30.6 26.6 -2.0 12 15.1 WSW 9 11 5 6 1013.5 1013.4 0.0
11/06:00pm 31.0 26.9 -2.9 11 15.5 SW 9 15 5 8 1013.7 1013.6 0.0
11/05:30pm 31.0 28.2 -2.9 11 15.5 NNW 2 7 1 4 1013.7 1013.6 0.0
11/05:00pm 30.9 26.4 -3.0 11 15.5 W 11 15 6 8 1013.9 1013.8 0.0
11/04:30pm 31.0 26.7 -1.7 12 15.3 W 11 19 6 10 1014.4 1014.3 0.0
11/04:00pm 29.7 26.1 5.1 21 12.8 WSW 13 19 7 10 1014.8 1014.7 0.0
11/03:30pm 28.3 23.9 6.4 25 11.6 W 19 26 10 14 1015.1 1015.0 0.0
11/03:00pm 29.8 26.0 5.8 22 12.6 W 15 28 8 15 1015.4 1015.3 0.0
11/02:30pm 30.2 25.6 -1.2 13 14.7 NW 13 22 7 12 1015.5 1015.4 0.0
11/02:00pm 30.4 26.5 0.9 15 14.4 NNE 11 19 6 10 1016.1 1016.0 0.0
11/01:30pm 29.6 25.8 2.0 17 13.6 NNW 11 20 6 11 1016.5 1016.4 0.0
11/01:00pm 27.7 23.6 2.0 19 12.5 NNW 13 20 7 11 1017.1 1017.0 0.0
11/12:30pm 27.3 25.2 6.7 27 10.9 WSW 7 17 4 9 1017.4 1017.3 0.0
11/12:00pm 25.5 22.4 8.9 35 9.0 WSW 15 22 8 12 1018.0 1017.9 0.0
11/11:30am 26.3 23.0 4.7 25 10.9 N 11 20 6 11 1018.2 1018.1 0.0
11/11:00am 25.5 22.5 4.0 25 10.7 N 9 20 5 11 1018.5 1018.4 0.0
11/10:30am 24.4 21.9 6.6 32 9.2 NNE 9 17 5 9 1018.6 1018.5 0.0
11/10:00am 23.2 19.5 6.5 34 8.6 NE 15 20 8 11 1018.7 1018.6 0.0
11/09:30am 21.9 18.2 6.2 36 7.9 NNE 15 22 8 12 1019.0 1018.9 0.0
11/09:00am 20.2 18.4 7.2 43 6.6 N 6 9 3 5 1019.1 1019.0 0.0
11/08:30am 18.9 17.0 7.4 47 5.8 NNE 7 11 4 6 1019.2 1019.1 0.0
11/08:00am 16.9 16.3 7.5 54 4.7 CALM 0 0 0 0 1019.3 1019.2 0.0
11/07:30am 15.2 14.7 8.0 62 3.6 CALM 0 0 0 0 1019.7 1019.6 0.0
11/07:00am 12.9 12.2 7.1 68 2.8 CALM 0 0 0 0 1019.5 1019.4 0.0
11/06:30am 11.5 10.3 6.6 72 2.3 S 2 7 1 4 1019.2 1019.1 0.0
11/06:00am 11.9 9.8 6.8 71 2.4 S 7 9 4 5 1018.7 1018.6 0.0
11/05:30am 14.0 11.6 7.1 63 3.4 ENE 9 15 5 8 1018.2 1018.1 0.0
11/05:00am 13.3 11.3 6.9 65 3.1 NE 7 11 4 6 1017.8 1017.7 0.0
11/04:30am 12.2 10.4 8.1 76 2.0 NNE 7 9 4 5 1018.0 1017.9 0.0
11/04:00am 11.5 10.9 7.6 77 1.9 CALM 0 0 0 0 1018.2 1018.1 0.0
11/03:30am 11.9 10.8 7.0 72 2.3 E 2 6 1 3 1018.3 1018.2 0.0
11/03:00am 12.8 11.0 7.0 68 2.8 SE 6 7 3 4 1018.3 1018.2 0.0
11/02:30am 12.8 12.2 7.3 69 2.7 CALM 0 0 0 0 1018.5 1018.4 0.0
11/02:00am 12.6 11.8 6.6 67 2.9 CALM 0 0 0 0 1018.7 1018.6 0.0
11/01:30am 13.7 12.9 6.6 62 3.4 CALM 0 6 0 3 1018.8 1018.7 0.0
11/01:00am 14.2 13.0 6.6 60 3.7 S 2 9 1 5 1018.8 1018.7 0.0
11/12:30am 15.7 13.7 6.4 54 4.5 ESE 6 13 3 7 1018.6 1018.5 0.0
11/12:00am 14.3 13.6 6.9 61 3.6 CALM 0 0 0 0 1019.0 1018.9 0.0
 
Date/Time
CDT
Temp
°C
App
Temp
°C
Dew
Point
°C
Rel
Hum
%
Delta-T
°C
Wind Press
QNH
hPa
Press
MSL
hPa
Rain since
9am
mm
Dir  Spd
km/h
Gust
km/h
Spd
kts
Gust
kts
10/11:30pm 15.7 14.6 6.7 55 4.4 E 2 6 1 3 1018.9 1018.8 0.0
10/11:00pm 16.6 14.8 7.0 53 4.8 ESE 6 9 3 5 1019.0 1018.9 0.0
10/10:30pm 17.0 14.7 7.4 53 4.8 SE 9 13 5 7 1019.3 1019.2 0.0
10/10:00pm 17.1 14.9 8.0 55 4.6 SE 9 13 5 7 1019.3 1019.2 0.0
10/09:30pm 18.0 15.4 7.7 51 5.2 SSE 11 19 6 10 1018.9 1018.8 0.0
10/09:00pm 18.6 16.3 7.4 48 5.7 SSE 9 15 5 8 1018.4 1018.3 0.0
10/08:30pm 19.9 16.0 0.9 28 8.5 S 11 17 6 9 1018.0 1017.9 0.0
10/08:00pm 20.2 16.1 2.1 30 8.4 SSW 13 19 7 10 1017.8 1017.7 0.0
10/07:30pm 20.6 16.7 3.3 32 8.2 SW 13 20 7 11 1017.8 1017.7 0.0
10/07:00pm 22.2 17.6 1.8 26 9.5 SW 15 22 8 12 1017.6 1017.5 0.0
10/06:30pm 23.2 18.1 0.9 23 10.3 SSW 17 24 9 13 1017.4 1017.3 0.0
10/06:00pm 24.2 19.5 1.2 22 10.7 SW 15 19 8 10 1017.4 1017.3 0.0
10/05:30pm 24.3 19.7 -0.8 19 11.3 SW 13 20 7 11 1017.5 1017.4 0.0
10/05:00pm 25.1 20.8 1.3 21 11.2 WSW 13 20 7 11 1017.6 1017.5 0.0
10/04:30pm 25.1 20.5 -7.4 11 13.0 WSW 9 19 5 10 1017.6 1017.5 0.0
10/04:00pm 25.0 21.1 -4.3 14 12.4 SSW 7 17 4 9 1017.6 1017.5 0.0
10/03:30pm 24.8 20.2 -1.1 18 11.6 WSW 13 20 7 11 1018.0 1017.9 0.0
10/03:00pm 24.5 19.3 0.1 20 11.2 SW 17 26 9 14 1018.2 1018.1 0.0
10/02:30pm 24.4 19.7 0.7 21 11.0 WSW 15 22 8 12 1018.2 1018.1 0.0
10/02:00pm 23.8 19.1 0.8 22 10.7 WSW 15 24 8 13 1018.3 1018.2 0.0
10/01:30pm 24.0 19.5 2.2 24 10.4 WSW 15 24 8 13 1018.5 1018.4 0.0
10/01:00pm 24.4 21.0 4.2 27 10.0 SSW 11 22 6 12 1018.6 1018.5 0.0
10/12:30pm 22.6 18.9 2.1 26 9.6 WNW 11 17 6 9 1018.9 1018.8 0.0
10/12:00pm 22.4 19.5 4.9 32 8.6 SW 9 17 5 9 1019.4 1019.3 0.0
10/11:30am 22.0 19.3 7.4 39 7.5 SW 11 15 6 8 1019.9 1019.8 0.0
10/11:00am 21.5 18.8 5.4 35 8.0 WSW 9 15 5 8 1020.2 1020.1 0.0
10/10:30am 21.3 19.1 6.4 38 7.5 WSW 7 13 4 7 1020.2 1020.1 0.0
10/10:00am 19.9 17.8 5.9 40 7.0 NE 6 13 3 7 1020.3 1020.2 0.0
10/09:30am 19.3 17.4 6.8 44 6.3 NE 6 9 3 5 1020.3 1020.2 0.0
10/09:00am 18.3 17.0 5.8 44 6.1 NE 2 7 1 4 1020.2 1020.1 0.0
10/08:30am 17.3 16.0 6.2 48 5.4 S 2 7 1 4 1020.1 1020.0 0.0
10/08:00am 16.0 14.0 6.2 52 4.8 SE 6 7 3 4 1019.9 1019.8 0.0
10/07:30am 13.3 12.0 7.5 68 2.8 NE 4 6 2 3 1019.7 1019.6 0.0
10/07:00am 12.1 9.9 8.0 76 2.0 NE 9 11 5 6 1019.4 1019.3 0.0
10/06:30am 10.6 9.1 8.4 86 1.1 NNE 6 11 3 6 1019.0 1018.9 0.0
10/06:00am 9.0 8.4 7.6 91 0.7 CALM 0 0 0 0 1018.8 1018.7 0.0
10/05:30am 9.3 8.8 7.7 90 0.8 CALM 0 0 0 0 1018.4 1018.3 0.0

Other Formats:

Comma delimited format used in spreadsheet applications
http://www.bom.gov.au/fwo/IDS60801/IDS60801.94648.axf

JavaScript Object Notation format (JSON) in row-major order
http://www.bom.gov.au/fwo/IDS60801/IDS60801.94648.json